sensor_id;sensor_type;location;lat;lon;timestamp;P1;durP1;ratioP1;P2;durP2;ratioP2
45905;SDS011;31619;49.008;12.106;2022-07-30T00:01:58;8.40;;;7.60;;
45905;SDS011;31619;49.008;12.106;2022-07-30T00:04:24;9.80;;;9.07;;
45905;SDS011;31619;49.008;12.106;2022-07-30T00:06:50;8.43;;;7.63;;
45905;SDS011;31619;49.008;12.106;2022-07-30T00:09:16;8.48;;;7.72;;
45905;SDS011;31619;49.008;12.106;2022-07-30T00:11:41;6.72;;;6.22;;
45905;SDS011;31619;49.008;12.106;2022-07-30T00:14:07;6.13;;;5.78;;
45905;SDS011;31619;49.008;12.106;2022-07-30T00:16:33;6.93;;;6.38;;
45905;SDS011;31619;49.008;12.106;2022-07-30T00:18:59;7.40;;;6.90;;
45905;SDS011;31619;49.008;12.106;2022-07-30T00:21:25;9.52;;;8.73;;
45905;SDS011;31619;49.008;12.106;2022-07-30T00:23:51;10.00;;;9.20;;
45905;SDS011;31619;49.008;12.106;2022-07-30T00:26:16;10.20;;;9.40;;
45905;SDS011;31619;49.008;12.106;2022-07-30T00:28:42;12.95;;;11.75;;
45905;SDS011;31619;49.008;12.106;2022-07-30T00:31:07;13.00;;;11.80;;
45905;SDS011;31619;49.008;12.106;2022-07-30T00:33:33;13.48;;;12.38;;
45905;SDS011;31619;49.008;12.106;2022-07-30T00:35:59;13.95;;;12.75;;
45905;SDS011;31619;49.008;12.106;2022-07-30T00:38:24;14.05;;;12.77;;
45905;SDS011;31619;49.008;12.106;2022-07-30T00:40:50;14.48;;;13.23;;
45905;SDS011;31619;49.008;12.106;2022-07-30T00:43:16;14.13;;;12.93;;
45905;SDS011;31619;49.008;12.106;2022-07-30T00:45:45;15.05;;;13.73;;
45905;SDS011;31619;49.008;12.106;2022-07-30T00:48:12;14.02;;;12.93;;
45905;SDS011;31619;49.008;12.106;2022-07-30T00:50:38;14.00;;;12.80;;
45905;SDS011;31619;49.008;12.106;2022-07-30T00:53:04;14.07;;;12.88;;
45905;SDS011;31619;49.008;12.106;2022-07-30T00:55:31;13.27;;;12.18;;
45905;SDS011;31619;49.008;12.106;2022-07-30T00:57:57;15.25;;;14.02;;
45905;SDS011;31619;49.008;12.106;2022-07-30T01:00:23;12.75;;;11.68;;
45905;SDS011;31619;49.008;12.106;2022-07-30T01:02:49;15.27;;;13.98;;
45905;SDS011;31619;49.008;12.106;2022-07-30T01:05:15;16.48;;;14.95;;
45905;SDS011;31619;49.008;12.106;2022-07-30T01:07:41;17.02;;;15.63;;
45905;SDS011;31619;49.008;12.106;2022-07-30T01:10:07;15.95;;;14.55;;
45905;SDS011;31619;49.008;12.106;2022-07-30T01:12:35;14.30;;;13.20;;
45905;SDS011;31619;49.008;12.106;2022-07-30T01:15:03;14.00;;;12.85;;
45905;SDS011;31619;49.008;12.106;2022-07-30T01:17:30;14.27;;;12.85;;
45905;SDS011;31619;49.008;12.106;2022-07-30T01:19:58;12.82;;;11.80;;
45905;SDS011;31619;49.008;12.106;2022-07-30T01:27:29;14.95;;;13.75;;
45905;SDS011;31619;49.008;12.106;2022-07-30T01:29:57;14.82;;;13.63;;
45905;SDS011;31619;49.008;12.106;2022-07-30T01:32:25;14.13;;;13.02;;
45905;SDS011;31619;49.008;12.106;2022-07-30T01:34:52;13.98;;;12.90;;
45905;SDS011;31619;49.008;12.106;2022-07-30T01:37:21;15.63;;;14.32;;
45905;SDS011;31619;49.008;12.106;2022-07-30T01:39:48;13.25;;;12.20;;
45905;SDS011;31619;49.008;12.106;2022-07-30T01:42:15;14.27;;;13.27;;
45905;SDS011;31619;49.008;12.106;2022-07-30T01:44:43;12.95;;;11.85;;
45905;SDS011;31619;49.008;12.106;2022-07-30T01:47:11;13.82;;;12.73;;
45905;SDS011;31619;49.008;12.106;2022-07-30T01:49:39;10.77;;;9.88;;
45905;SDS011;31619;49.008;12.106;2022-07-30T01:52:05;12.02;;;11.13;;
45905;SDS011;31619;49.008;12.106;2022-07-30T01:54:34;12.63;;;11.63;;
45905;SDS011;31619;49.008;12.106;2022-07-30T01:57:02;13.40;;;12.30;;
45905;SDS011;31619;49.008;12.106;2022-07-30T01:59:30;13.95;;;12.88;;
45905;SDS011;31619;49.008;12.106;2022-07-30T02:01:58;13.40;;;12.30;;
45905;SDS011;31619;49.008;12.106;2022-07-30T02:04:25;11.82;;;10.93;;
45905;SDS011;31619;49.008;12.106;2022-07-30T02:07:13;12.57;;;11.60;;
45905;SDS011;31619;49.008;12.106;2022-07-30T02:10:08;12.23;;;11.13;;
45905;SDS011;31619;49.008;12.106;2022-07-30T02:12:38;11.55;;;10.65;;
45905;SDS011;31619;49.008;12.106;2022-07-30T02:20:19;12.35;;;11.25;;
45905;SDS011;31619;49.008;12.106;2022-07-30T02:22:47;11.60;;;10.65;;
45905;SDS011;31619;49.008;12.106;2022-07-30T02:25:14;12.00;;;10.93;;
45905;SDS011;31619;49.008;12.106;2022-07-30T02:27:44;12.23;;;11.13;;
45905;SDS011;31619;49.008;12.106;2022-07-30T02:30:13;11.32;;;10.48;;
45905;SDS011;31619;49.008;12.106;2022-07-30T02:32:39;10.80;;;9.90;;
45905;SDS011;31619;49.008;12.106;2022-07-30T02:35:12;11.63;;;10.73;;
45905;SDS011;31619;49.008;12.106;2022-07-30T02:37:41;12.00;;;10.90;;
45905;SDS011;31619;49.008;12.106;2022-07-30T02:40:09;10.25;;;9.50;;
45905;SDS011;31619;49.008;12.106;2022-07-30T02:42:37;11.43;;;10.50;;
45905;SDS011;31619;49.008;12.106;2022-07-30T02:45:03;11.13;;;10.23;;
45905;SDS011;31619;49.008;12.106;2022-07-30T02:47:30;9.82;;;8.85;;
45905;SDS011;31619;49.008;12.106;2022-07-30T02:49:56;10.05;;;9.07;;
45905;SDS011;31619;49.008;12.106;2022-07-30T02:52:24;10.75;;;9.82;;
45905;SDS011;31619;49.008;12.106;2022-07-30T02:54:52;10.77;;;9.88;;
45905;SDS011;31619;49.008;12.106;2022-07-30T02:57:21;10.18;;;9.15;;
45905;SDS011;31619;49.008;12.106;2022-07-30T02:59:47;10.77;;;9.88;;
45905;SDS011;31619;49.008;12.106;2022-07-30T03:02:14;10.48;;;9.68;;
45905;SDS011;31619;49.008;12.106;2022-07-30T03:04:42;10.80;;;9.98;;
45905;SDS011;31619;49.008;12.106;2022-07-30T03:07:08;10.88;;;10.02;;
45905;SDS011;31619;49.008;12.106;2022-07-30T03:09:36;11.13;;;10.23;;
45905;SDS011;31619;49.008;12.106;2022-07-30T03:12:05;10.73;;;9.80;;
45905;SDS011;31619;49.008;12.106;2022-07-30T03:14:32;10.55;;;9.65;;
45905;SDS011;31619;49.008;12.106;2022-07-30T03:16:58;11.77;;;10.77;;
45905;SDS011;31619;49.008;12.106;2022-07-30T03:19:28;11.25;;;10.35;;
45905;SDS011;31619;49.008;12.106;2022-07-30T03:21:56;11.80;;;10.73;;
45905;SDS011;31619;49.008;12.106;2022-07-30T03:24:24;11.48;;;10.57;;
45905;SDS011;31619;49.008;12.106;2022-07-30T03:26:52;12.02;;;11.02;;
45905;SDS011;31619;49.008;12.106;2022-07-30T03:29:19;12.07;;;10.90;;
45905;SDS011;31619;49.008;12.106;2022-07-30T03:31:48;10.57;;;9.68;;
45905;SDS011;31619;49.008;12.106;2022-07-30T03:34:14;13.32;;;11.35;;
45905;SDS011;31619;49.008;12.106;2022-07-30T03:36:41;11.15;;;10.05;;
45905;SDS011;31619;49.008;12.106;2022-07-30T03:39:07;12.13;;;11.13;;
45905;SDS011;31619;49.008;12.106;2022-07-30T03:41:34;11.75;;;10.43;;
45905;SDS011;31619;49.008;12.106;2022-07-30T03:44:01;12.57;;;11.50;;
45905;SDS011;31619;49.008;12.106;2022-07-30T03:46:27;12.85;;;11.60;;
45905;SDS011;31619;49.008;12.106;2022-07-30T03:48:53;12.27;;;11.15;;
45905;SDS011;31619;49.008;12.106;2022-07-30T03:51:20;12.65;;;11.48;;
45905;SDS011;31619;49.008;12.106;2022-07-30T03:53:46;12.68;;;11.55;;
45905;SDS011;31619;49.008;12.106;2022-07-30T03:56:13;12.85;;;11.75;;
45905;SDS011;31619;49.008;12.106;2022-07-30T03:58:39;10.93;;;9.93;;
45905;SDS011;31619;49.008;12.106;2022-07-30T04:01:05;12.05;;;10.95;;
45905;SDS011;31619;49.008;12.106;2022-07-30T04:03:31;12.77;;;11.60;;
45905;SDS011;31619;49.008;12.106;2022-07-30T04:05:57;13.10;;;12.00;;
45905;SDS011;31619;49.008;12.106;2022-07-30T04:08:23;10.75;;;9.70;;
45905;SDS011;31619;49.008;12.106;2022-07-30T04:10:49;12.48;;;11.40;;
45905;SDS011;31619;49.008;12.106;2022-07-30T04:13:15;12.52;;;11.43;;
45905;SDS011;31619;49.008;12.106;2022-07-30T04:18:34;13.20;;;12.00;;
45905;SDS011;31619;49.008;12.106;2022-07-30T04:21:04;13.13;;;11.98;;
45905;SDS011;31619;49.008;12.106;2022-07-30T04:23:31;12.55;;;11.35;;
45905;SDS011;31619;49.008;12.106;2022-07-30T04:25:58;13.18;;;11.98;;
45905;SDS011;31619;49.008;12.106;2022-07-30T04:28:26;13.93;;;12.73;;
45905;SDS011;31619;49.008;12.106;2022-07-30T04:30:52;13.60;;;12.40;;
45905;SDS011;31619;49.008;12.106;2022-07-30T04:33:18;13.77;;;12.43;;
45905;SDS011;31619;49.008;12.106;2022-07-30T04:35:44;13.63;;;12.43;;
45905;SDS011;31619;49.008;12.106;2022-07-30T04:38:13;12.63;;;11.63;;
45905;SDS011;31619;49.008;12.106;2022-07-30T04:40:40;13.23;;;12.07;;
45905;SDS011;31619;49.008;12.106;2022-07-30T04:43:06;12.98;;;11.77;;
45905;SDS011;31619;49.008;12.106;2022-07-30T04:45:31;12.35;;;11.15;;
45905;SDS011;31619;49.008;12.106;2022-07-30T04:47:57;13.10;;;11.90;;
45905;SDS011;31619;49.008;12.106;2022-07-30T04:50:25;12.93;;;11.73;;
45905;SDS011;31619;49.008;12.106;2022-07-30T04:52:53;12.80;;;11.77;;
45905;SDS011;31619;49.008;12.106;2022-07-30T04:55:20;12.80;;;11.48;;
45905;SDS011;31619;49.008;12.106;2022-07-30T04:57:48;12.77;;;11.57;;
45905;SDS011;31619;49.008;12.106;2022-07-30T05:00:15;12.90;;;11.82;;
45905;SDS011;31619;49.008;12.106;2022-07-30T05:02:42;12.27;;;11.27;;
45905;SDS011;31619;49.008;12.106;2022-07-30T05:05:09;11.55;;;10.50;;
45905;SDS011;31619;49.008;12.106;2022-07-30T05:07:36;11.68;;;10.75;;
45905;SDS011;31619;49.008;12.106;2022-07-30T05:10:03;12.20;;;11.02;;
45905;SDS011;31619;49.008;12.106;2022-07-30T05:12:36;11.95;;;10.85;;
45905;SDS011;31619;49.008;12.106;2022-07-30T05:15:06;12.38;;;11.18;;
45905;SDS011;31619;49.008;12.106;2022-07-30T05:17:33;13.35;;;12.15;;
45905;SDS011;31619;49.008;12.106;2022-07-30T05:19:59;12.18;;;11.02;;
45905;SDS011;31619;49.008;12.106;2022-07-30T05:22:25;12.75;;;11.32;;
45905;SDS011;31619;49.008;12.106;2022-07-30T05:24:54;11.27;;;10.38;;
45905;SDS011;31619;49.008;12.106;2022-07-30T05:27:20;9.73;;;8.90;;
45905;SDS011;31619;49.008;12.106;2022-07-30T05:29:46;12.02;;;10.93;;
45905;SDS011;31619;49.008;12.106;2022-07-30T05:32:11;11.40;;;10.43;;
45905;SDS011;31619;49.008;12.106;2022-07-30T05:34:37;10.45;;;9.50;;
45905;SDS011;31619;49.008;12.106;2022-07-30T05:37:03;10.05;;;9.25;;
45905;SDS011;31619;49.008;12.106;2022-07-30T05:39:29;9.52;;;8.50;;
45905;SDS011;31619;49.008;12.106;2022-07-30T05:41:54;11.07;;;10.07;;
45905;SDS011;31619;49.008;12.106;2022-07-30T05:44:20;11.05;;;10.05;;
45905;SDS011;31619;49.008;12.106;2022-07-30T05:46:46;10.35;;;8.98;;
45905;SDS011;31619;49.008;12.106;2022-07-30T05:49:11;9.82;;;8.95;;
45905;SDS011;31619;49.008;12.106;2022-07-30T05:51:37;9.38;;;8.60;;
45905;SDS011;31619;49.008;12.106;2022-07-30T05:54:03;10.32;;;9.32;;
45905;SDS011;31619;49.008;12.106;2022-07-30T05:56:29;8.15;;;7.45;;
45905;SDS011;31619;49.008;12.106;2022-07-30T05:58:54;9.15;;;8.45;;
45905;SDS011;31619;49.008;12.106;2022-07-30T06:01:20;9.52;;;8.77;;
45905;SDS011;31619;49.008;12.106;2022-07-30T06:03:46;9.27;;;8.57;;
45905;SDS011;31619;49.008;12.106;2022-07-30T06:06:11;8.70;;;7.95;;
45905;SDS011;31619;49.008;12.106;2022-07-30T06:08:37;9.50;;;8.70;;
45905;SDS011;31619;49.008;12.106;2022-07-30T06:11:02;8.82;;;8.23;;
45905;SDS011;31619;49.008;12.106;2022-07-30T06:13:28;10.18;;;9.30;;
45905;SDS011;31619;49.008;12.106;2022-07-30T06:15:54;8.95;;;8.00;;
45905;SDS011;31619;49.008;12.106;2022-07-30T06:18:20;9.15;;;8.45;;
45905;SDS011;31619;49.008;12.106;2022-07-30T06:20:45;8.48;;;7.78;;
45905;SDS011;31619;49.008;12.106;2022-07-30T06:23:13;8.82;;;8.13;;
45905;SDS011;31619;49.008;12.106;2022-07-30T06:25:39;8.48;;;7.57;;
45905;SDS011;31619;49.008;12.106;2022-07-30T06:28:04;7.47;;;6.90;;
45905;SDS011;31619;49.008;12.106;2022-07-30T06:30:30;8.02;;;7.20;;
45905;SDS011;31619;49.008;12.106;2022-07-30T06:32:56;8.50;;;7.70;;
45905;SDS011;31619;49.008;12.106;2022-07-30T06:35:21;7.18;;;6.57;;
45905;SDS011;31619;49.008;12.106;2022-07-30T06:37:47;7.03;;;6.50;;
45905;SDS011;31619;49.008;12.106;2022-07-30T06:40:13;6.72;;;6.13;;
45905;SDS011;31619;49.008;12.106;2022-07-30T06:42:38;6.78;;;6.18;;
45905;SDS011;31619;49.008;12.106;2022-07-30T06:45:04;7.03;;;6.43;;
45905;SDS011;31619;49.008;12.106;2022-07-30T06:47:30;5.90;;;5.50;;
45905;SDS011;31619;49.008;12.106;2022-07-30T06:49:59;6.03;;;5.63;;
45905;SDS011;31619;49.008;12.106;2022-07-30T06:52:25;6.18;;;5.68;;
45905;SDS011;31619;49.008;12.106;2022-07-30T06:54:51;6.57;;;6.18;;
45905;SDS011;31619;49.008;12.106;2022-07-30T06:57:17;6.10;;;5.60;;
45905;SDS011;31619;49.008;12.106;2022-07-30T06:59:43;5.95;;;5.55;;
45905;SDS011;31619;49.008;12.106;2022-07-30T07:02:09;5.00;;;4.68;;
45905;SDS011;31619;49.008;12.106;2022-07-30T07:04:34;5.85;;;5.45;;
45905;SDS011;31619;49.008;12.106;2022-07-30T07:07:00;5.38;;;4.97;;
45905;SDS011;31619;49.008;12.106;2022-07-30T07:09:26;5.03;;;4.72;;
45905;SDS011;31619;49.008;12.106;2022-07-30T07:11:51;4.88;;;4.50;;
45905;SDS011;31619;49.008;12.106;2022-07-30T07:14:17;6.78;;;6.28;;
45905;SDS011;31619;49.008;12.106;2022-07-30T07:16:42;7.43;;;6.90;;
45905;SDS011;31619;49.008;12.106;2022-07-30T07:19:08;7.68;;;7.18;;
45905;SDS011;31619;49.008;12.106;2022-07-30T07:21:34;7.57;;;6.97;;
45905;SDS011;31619;49.008;12.106;2022-07-30T07:23:59;7.00;;;6.50;;
45905;SDS011;31619;49.008;12.106;2022-07-30T07:26:26;7.18;;;6.68;;
45905;SDS011;31619;49.008;12.106;2022-07-30T07:28:53;7.28;;;6.70;;
45905;SDS011;31619;49.008;12.106;2022-07-30T07:31:18;6.97;;;6.38;;
45905;SDS011;31619;49.008;12.106;2022-07-30T07:33:44;7.07;;;6.53;;
45905;SDS011;31619;49.008;12.106;2022-07-30T07:36:11;6.95;;;6.45;;
45905;SDS011;31619;49.008;12.106;2022-07-30T07:38:36;7.50;;;6.90;;
45905;SDS011;31619;49.008;12.106;2022-07-30T07:41:02;6.60;;;6.20;;
45905;SDS011;31619;49.008;12.106;2022-07-30T07:43:29;7.18;;;6.68;;
45905;SDS011;31619;49.008;12.106;2022-07-30T07:45:55;7.03;;;6.53;;
45905;SDS011;31619;49.008;12.106;2022-07-30T07:48:20;6.97;;;6.43;;
45905;SDS011;31619;49.008;12.106;2022-07-30T07:50:46;6.72;;;6.22;;
45905;SDS011;31619;49.008;12.106;2022-07-30T07:53:12;7.35;;;6.85;;
45905;SDS011;31619;49.008;12.106;2022-07-30T07:55:37;7.05;;;6.55;;
45905;SDS011;31619;49.008;12.106;2022-07-30T07:58:04;6.60;;;6.10;;
45905;SDS011;31619;49.008;12.106;2022-07-30T08:00:29;7.03;;;6.50;;
45905;SDS011;31619;49.008;12.106;2022-07-30T08:02:55;6.63;;;6.07;;
45905;SDS011;31619;49.008;12.106;2022-07-30T08:05:21;6.13;;;5.72;;
45905;SDS011;31619;49.008;12.106;2022-07-30T08:07:47;5.68;;;5.28;;
45905;SDS011;31619;49.008;12.106;2022-07-30T08:10:13;5.32;;;4.93;;
45905;SDS011;31619;49.008;12.106;2022-07-30T08:12:40;5.70;;;5.30;;
45905;SDS011;31619;49.008;12.106;2022-07-30T08:15:06;5.53;;;5.10;;
45905;SDS011;31619;49.008;12.106;2022-07-30T08:17:37;5.07;;;4.68;;
45905;SDS011;31619;49.008;12.106;2022-07-30T08:20:07;4.95;;;4.65;;
45905;SDS011;31619;49.008;12.106;2022-07-30T08:22:33;5.93;;;5.43;;
45905;SDS011;31619;49.008;12.106;2022-07-30T08:24:59;5.32;;;5.03;;
45905;SDS011;31619;49.008;12.106;2022-07-30T08:27:25;4.97;;;4.57;;
45905;SDS011;31619;49.008;12.106;2022-07-30T08:29:51;5.30;;;5.00;;
45905;SDS011;31619;49.008;12.106;2022-07-30T08:32:17;5.22;;;4.80;;
45905;SDS011;31619;49.008;12.106;2022-07-30T08:34:42;4.75;;;4.35;;
45905;SDS011;31619;49.008;12.106;2022-07-30T08:37:08;4.35;;;4.05;;
45905;SDS011;31619;49.008;12.106;2022-07-30T08:39:34;4.32;;;3.70;;
45905;SDS011;31619;49.008;12.106;2022-07-30T08:41:59;3.42;;;3.22;;
45905;SDS011;31619;49.008;12.106;2022-07-30T08:44:27;3.47;;;3.28;;
45905;SDS011;31619;49.008;12.106;2022-07-30T08:46:54;3.83;;;3.63;;
45905;SDS011;31619;49.008;12.106;2022-07-30T08:49:21;5.43;;;3.00;;
45905;SDS011;31619;49.008;12.106;2022-07-30T08:51:48;3.58;;;3.38;;
45905;SDS011;31619;49.008;12.106;2022-07-30T08:54:15;3.33;;;3.13;;
45905;SDS011;31619;49.008;12.106;2022-07-30T08:56:42;3.25;;;3.05;;
45905;SDS011;31619;49.008;12.106;2022-07-30T08:59:08;3.42;;;3.22;;
45905;SDS011;31619;49.008;12.106;2022-07-30T09:01:34;2.95;;;2.85;;
45905;SDS011;31619;49.008;12.106;2022-07-30T09:03:59;3.78;;;3.58;;
45905;SDS011;31619;49.008;12.106;2022-07-30T09:06:25;3.13;;;2.92;;
45905;SDS011;31619;49.008;12.106;2022-07-30T09:08:51;3.67;;;3.38;;
45905;SDS011;31619;49.008;12.106;2022-07-30T09:11:17;4.15;;;3.75;;
45905;SDS011;31619;49.008;12.106;2022-07-30T09:13:43;4.38;;;3.45;;
45905;SDS011;31619;49.008;12.106;2022-07-30T09:16:19;3.45;;;3.25;;
45905;SDS011;31619;49.008;12.106;2022-07-30T09:18:49;3.15;;;2.95;;
45905;SDS011;31619;49.008;12.106;2022-07-30T09:26:53;3.88;;;3.30;;
45905;SDS011;31619;49.008;12.106;2022-07-30T09:29:25;3.28;;;3.08;;
45905;SDS011;31619;49.008;12.106;2022-07-30T09:31:56;2.92;;;2.80;;
45905;SDS011;31619;49.008;12.106;2022-07-30T09:34:30;4.13;;;3.35;;
45905;SDS011;31619;49.008;12.106;2022-07-30T09:37:01;3.50;;;2.80;;
45905;SDS011;31619;49.008;12.106;2022-07-30T09:39:32;15.10;;;3.13;;
45905;SDS011;31619;49.008;12.106;2022-07-30T09:42:02;3.53;;;3.00;;
45905;SDS011;31619;49.008;12.106;2022-07-30T09:44:40;2.72;;;2.50;;
45905;SDS011;31619;49.008;12.106;2022-07-30T09:47:06;2.88;;;2.60;;
45905;SDS011;31619;49.008;12.106;2022-07-30T09:49:31;2.72;;;2.53;;
45905;SDS011;31619;49.008;12.106;2022-07-30T09:51:57;2.53;;;2.42;;
45905;SDS011;31619;49.008;12.106;2022-07-30T09:54:24;3.30;;;3.03;;
45905;SDS011;31619;49.008;12.106;2022-07-30T09:57:08;2.60;;;2.40;;
45905;SDS011;31619;49.008;12.106;2022-07-30T09:59:34;2.70;;;2.50;;
45905;SDS011;31619;49.008;12.106;2022-07-30T10:01:59;2.60;;;2.50;;
45905;SDS011;31619;49.008;12.106;2022-07-30T10:04:30;2.85;;;2.75;;
45905;SDS011;31619;49.008;12.106;2022-07-30T10:06:57;3.10;;;3.00;;
45905;SDS011;31619;49.008;12.106;2022-07-30T10:09:31;2.95;;;2.75;;
45905;SDS011;31619;49.008;12.106;2022-07-30T10:11:59;2.67;;;2.58;;
45905;SDS011;31619;49.008;12.106;2022-07-30T10:14:29;2.67;;;2.47;;
45905;SDS011;31619;49.008;12.106;2022-07-30T10:16:58;3.47;;;3.15;;
45905;SDS011;31619;49.008;12.106;2022-07-30T10:19:24;2.92;;;2.83;;
45905;SDS011;31619;49.008;12.106;2022-07-30T10:21:50;2.92;;;2.72;;
45905;SDS011;31619;49.008;12.106;2022-07-30T10:24:17;2.63;;;2.38;;
45905;SDS011;31619;49.008;12.106;2022-07-30T10:26:46;3.08;;;2.90;;
45905;SDS011;31619;49.008;12.106;2022-07-30T10:29:15;2.78;;;2.67;;
45905;SDS011;31619;49.008;12.106;2022-07-30T10:31:48;2.47;;;2.28;;
45905;SDS011;31619;49.008;12.106;2022-07-30T10:34:15;3.47;;;2.65;;
45905;SDS011;31619;49.008;12.106;2022-07-30T10:36:43;2.58;;;2.47;;
45905;SDS011;31619;49.008;12.106;2022-07-30T10:39:14;2.70;;;2.60;;
45905;SDS011;31619;49.008;12.106;2022-07-30T10:49:27;2.03;;;1.92;;
45905;SDS011;31619;49.008;12.106;2022-07-30T10:51:52;3.00;;;2.28;;
45905;SDS011;31619;49.008;12.106;2022-07-30T10:57:18;1.92;;;1.90;;
45905;SDS011;31619;49.008;12.106;2022-07-30T11:02:14;1.90;;;1.80;;
45905;SDS011;31619;49.008;12.106;2022-07-30T11:04:40;2.00;;;1.90;;
45905;SDS011;31619;49.008;12.106;2022-07-30T11:10:15;2.00;;;1.90;;
45905;SDS011;31619;49.008;12.106;2022-07-30T11:12:53;1.85;;;1.70;;
45905;SDS011;31619;49.008;12.106;2022-07-30T11:15:20;1.67;;;1.60;;
45905;SDS011;31619;49.008;12.106;2022-07-30T11:20:24;1.58;;;1.55;;
45905;SDS011;31619;49.008;12.106;2022-07-30T11:22:51;1.70;;;1.60;;
45905;SDS011;31619;49.008;12.106;2022-07-30T11:27:47;1.85;;;1.75;;
45905;SDS011;31619;49.008;12.106;2022-07-30T11:32:40;2.10;;;2.00;;
45905;SDS011;31619;49.008;12.106;2022-07-30T11:35:11;1.90;;;1.80;;
45905;SDS011;31619;49.008;12.106;2022-07-30T11:37:55;2.05;;;1.95;;
45905;SDS011;31619;49.008;12.106;2022-07-30T11:41:18;2.00;;;1.90;;
45905;SDS011;31619;49.008;12.106;2022-07-30T11:45:47;1.70;;;1.70;;
45905;SDS011;31619;49.008;12.106;2022-07-30T11:48:14;2.05;;;1.70;;
45905;SDS011;31619;49.008;12.106;2022-07-30T11:50:42;2.00;;;1.80;;
45905;SDS011;31619;49.008;12.106;2022-07-30T11:53:12;2.38;;;1.70;;
45905;SDS011;31619;49.008;12.106;2022-07-30T11:55:44;1.90;;;1.80;;
45905;SDS011;31619;49.008;12.106;2022-07-30T11:58:25;1.50;;;1.50;;
45905;SDS011;31619;49.008;12.106;2022-07-30T12:00:56;1.52;;;1.52;;
45905;SDS011;31619;49.008;12.106;2022-07-30T12:03:25;1.77;;;1.67;;
45905;SDS011;31619;49.008;12.106;2022-07-30T12:05:52;1.95;;;1.85;;
45905;SDS011;31619;49.008;12.106;2022-07-30T12:08:18;1.50;;;1.50;;
45905;SDS011;31619;49.008;12.106;2022-07-30T12:10:53;1.92;;;1.83;;
45905;SDS011;31619;49.008;12.106;2022-07-30T12:13:20;1.77;;;1.67;;
45905;SDS011;31619;49.008;12.106;2022-07-30T12:15:46;1.85;;;1.75;;
45905;SDS011;31619;49.008;12.106;2022-07-30T12:18:25;2.03;;;1.88;;
45905;SDS011;31619;49.008;12.106;2022-07-30T12:20:55;1.80;;;1.73;;
45905;SDS011;31619;49.008;12.106;2022-07-30T12:23:23;1.70;;;1.60;;
45905;SDS011;31619;49.008;12.106;2022-07-30T12:25:49;1.67;;;1.58;;
45905;SDS011;31619;49.008;12.106;2022-07-30T12:28:22;1.95;;;1.70;;
45905;SDS011;31619;49.008;12.106;2022-07-30T12:30:50;1.70;;;1.60;;
45905;SDS011;31619;49.008;12.106;2022-07-30T12:33:17;1.48;;;1.38;;
45905;SDS011;31619;49.008;12.106;2022-07-30T12:35:51;1.55;;;1.45;;
45905;SDS011;31619;49.008;12.106;2022-07-30T12:38:19;1.50;;;1.50;;
45905;SDS011;31619;49.008;12.106;2022-07-30T12:41:04;1.58;;;1.52;;
45905;SDS011;31619;49.008;12.106;2022-07-30T12:43:49;1.50;;;1.50;;
45905;SDS011;31619;49.008;12.106;2022-07-30T12:46:19;1.95;;;1.75;;
45905;SDS011;31619;49.008;12.106;2022-07-30T12:48:54;2.33;;;1.98;;
45905;SDS011;31619;49.008;12.106;2022-07-30T12:51:32;1.70;;;1.60;;
45905;SDS011;31619;49.008;12.106;2022-07-30T12:53:59;2.10;;;2.00;;
45905;SDS011;31619;49.008;12.106;2022-07-30T12:56:29;2.40;;;2.20;;
45905;SDS011;31619;49.008;12.106;2022-07-30T12:58:58;1.80;;;1.80;;
45905;SDS011;31619;49.008;12.106;2022-07-30T13:01:39;1.80;;;1.70;;
45905;SDS011;31619;49.008;12.106;2022-07-30T13:04:10;1.92;;;1.70;;
45905;SDS011;31619;49.008;12.106;2022-07-30T13:06:37;3.03;;;1.80;;
45905;SDS011;31619;49.008;12.106;2022-07-30T13:09:04;1.95;;;1.95;;
45905;SDS011;31619;49.008;12.106;2022-07-30T13:11:38;2.00;;;1.90;;
45905;SDS011;31619;49.008;12.106;2022-07-30T13:14:05;1.67;;;1.65;;
45905;SDS011;31619;49.008;12.106;2022-07-30T13:16:32;2.30;;;2.20;;
45905;SDS011;31619;49.008;12.106;2022-07-30T13:18:59;2.08;;;1.98;;
45905;SDS011;31619;49.008;12.106;2022-07-30T13:21:25;1.67;;;1.58;;
45905;SDS011;31619;49.008;12.106;2022-07-30T13:23:51;1.70;;;1.70;;
45905;SDS011;31619;49.008;12.106;2022-07-30T13:26:16;2.20;;;2.00;;
45905;SDS011;31619;49.008;12.106;2022-07-30T13:28:42;2.50;;;2.05;;
45905;SDS011;31619;49.008;12.106;2022-07-30T13:31:10;3.97;;;2.13;;
45905;SDS011;31619;49.008;12.106;2022-07-30T13:33:36;1.92;;;1.83;;
45905;SDS011;31619;49.008;12.106;2022-07-30T13:36:02;1.80;;;1.70;;
45905;SDS011;31619;49.008;12.106;2022-07-30T13:38:29;2.25;;;2.05;;
45905;SDS011;31619;49.008;12.106;2022-07-30T13:40:55;1.60;;;1.38;;
45905;SDS011;31619;49.008;12.106;2022-07-30T13:43:20;2.45;;;1.85;;
45905;SDS011;31619;49.008;12.106;2022-07-30T13:45:46;1.40;;;1.38;;
45905;SDS011;31619;49.008;12.106;2022-07-30T13:48:13;2.55;;;2.00;;
45905;SDS011;31619;49.008;12.106;2022-07-30T13:50:39;1.73;;;1.63;;
45905;SDS011;31619;49.008;12.106;2022-07-30T13:53:05;1.65;;;1.65;;
45905;SDS011;31619;49.008;12.106;2022-07-30T13:55:31;1.38;;;1.38;;
45905;SDS011;31619;49.008;12.106;2022-07-30T13:57:57;2.40;;;1.73;;
45905;SDS011;31619;49.008;12.106;2022-07-30T14:00:23;1.73;;;1.58;;
45905;SDS011;31619;49.008;12.106;2022-07-30T14:02:49;3.10;;;1.30;;
45905;SDS011;31619;49.008;12.106;2022-07-30T14:05:15;1.40;;;1.40;;
45905;SDS011;31619;49.008;12.106;2022-07-30T14:07:41;3.05;;;1.55;;
45905;SDS011;31619;49.008;12.106;2022-07-30T14:10:07;1.30;;;1.20;;
45905;SDS011;31619;49.008;12.106;2022-07-30T14:12:33;2.25;;;1.38;;
45905;SDS011;31619;49.008;12.106;2022-07-30T14:14:59;1.30;;;1.30;;
45905;SDS011;31619;49.008;12.106;2022-07-30T14:17:25;2.05;;;1.30;;
45905;SDS011;31619;49.008;12.106;2022-07-30T14:19:51;1.27;;;1.17;;
45905;SDS011;31619;49.008;12.106;2022-07-30T14:22:20;1.60;;;1.50;;
45905;SDS011;31619;49.008;12.106;2022-07-30T14:24:46;1.52;;;1.42;;
45905;SDS011;31619;49.008;12.106;2022-07-30T14:27:12;1.60;;;1.50;;
45905;SDS011;31619;49.008;12.106;2022-07-30T14:29:38;1.75;;;1.25;;
45905;SDS011;31619;49.008;12.106;2022-07-30T14:32:04;1.52;;;1.50;;
45905;SDS011;31619;49.008;12.106;2022-07-30T14:34:30;1.80;;;1.70;;
45905;SDS011;31619;49.008;12.106;2022-07-30T14:36:56;1.60;;;1.58;;
45905;SDS011;31619;49.008;12.106;2022-07-30T14:39:21;1.48;;;1.48;;
45905;SDS011;31619;49.008;12.106;2022-07-30T14:41:47;1.77;;;1.67;;
45905;SDS011;31619;49.008;12.106;2022-07-30T14:44:13;2.53;;;1.80;;
45905;SDS011;31619;49.008;12.106;2022-07-30T14:46:39;2.25;;;2.10;;
45905;SDS011;31619;49.008;12.106;2022-07-30T14:49:06;1.92;;;1.83;;
45905;SDS011;31619;49.008;12.106;2022-07-30T14:51:33;1.90;;;1.80;;
45905;SDS011;31619;49.008;12.106;2022-07-30T14:53:58;2.83;;;2.10;;
45905;SDS011;31619;49.008;12.106;2022-07-30T14:56:24;1.90;;;1.80;;
45905;SDS011;31619;49.008;12.106;2022-07-30T14:58:50;1.67;;;1.58;;
45905;SDS011;31619;49.008;12.106;2022-07-30T15:01:17;1.88;;;1.77;;
45905;SDS011;31619;49.008;12.106;2022-07-30T15:03:43;3.28;;;2.22;;
45905;SDS011;31619;49.008;12.106;2022-07-30T15:06:09;2.30;;;2.10;;
45905;SDS011;31619;49.008;12.106;2022-07-30T15:08:36;1.98;;;1.88;;
45905;SDS011;31619;49.008;12.106;2022-07-30T15:11:02;2.53;;;2.33;;
45905;SDS011;31619;49.008;12.106;2022-07-30T15:13:28;3.38;;;2.05;;